sensor_id;sensor_type;location;lat;lon;timestamp;P1;durP1;ratioP1;P2;durP2;ratioP2
56363;SDS011;42261;52.094;4.326;2023-08-24T00:01:30;3.72;;;2.22;;
56363;SDS011;42261;52.094;4.326;2023-08-24T00:04:14;3.45;;;1.90;;
56363;SDS011;42261;52.094;4.326;2023-08-24T00:06:59;7.65;;;2.00;;
56363;SDS011;42261;52.094;4.326;2023-08-24T00:09:43;3.10;;;1.88;;
56363;SDS011;42261;52.094;4.326;2023-08-24T00:12:27;3.17;;;1.85;;
56363;SDS011;42261;52.094;4.326;2023-08-24T00:15:11;6.07;;;2.28;;
56363;SDS011;42261;52.094;4.326;2023-08-24T00:17:56;2.95;;;1.80;;
56363;SDS011;42261;52.094;4.326;2023-08-24T00:20:40;3.10;;;2.05;;
56363;SDS011;42261;52.094;4.326;2023-08-24T00:23:25;3.38;;;1.67;;
56363;SDS011;42261;52.094;4.326;2023-08-24T00:26:09;3.55;;;1.52;;
56363;SDS011;42261;52.094;4.326;2023-08-24T00:28:53;2.65;;;1.67;;
56363;SDS011;42261;52.094;4.326;2023-08-24T00:31:37;2.60;;;1.52;;
56363;SDS011;42261;52.094;4.326;2023-08-24T00:34:23;3.40;;;1.65;;
56363;SDS011;42261;52.094;4.326;2023-08-24T00:37:07;4.40;;;1.83;;
56363;SDS011;42261;52.094;4.326;2023-08-24T00:39:51;3.15;;;1.60;;
56363;SDS011;42261;52.094;4.326;2023-08-24T00:42:38;5.43;;;1.95;;
56363;SDS011;42261;52.094;4.326;2023-08-24T00:45:23;3.42;;;1.65;;
56363;SDS011;42261;52.094;4.326;2023-08-24T00:48:07;6.50;;;2.22;;
56363;SDS011;42261;52.094;4.326;2023-08-24T00:50:59;5.47;;;1.90;;
56363;SDS011;42261;52.094;4.326;2023-08-24T00:53:44;4.30;;;2.05;;
56363;SDS011;42261;52.094;4.326;2023-08-24T00:56:29;6.57;;;2.00;;
56363;SDS011;42261;52.094;4.326;2023-08-24T00:59:13;3.53;;;2.33;;
56363;SDS011;42261;52.094;4.326;2023-08-24T01:01:58;4.82;;;2.38;;
56363;SDS011;42261;52.094;4.326;2023-08-24T01:04:42;6.45;;;2.33;;
56363;SDS011;42261;52.094;4.326;2023-08-24T01:07:26;5.38;;;2.42;;
56363;SDS011;42261;52.094;4.326;2023-08-24T01:10:11;5.40;;;2.40;;
56363;SDS011;42261;52.094;4.326;2023-08-24T01:13:00;5.00;;;2.33;;
56363;SDS011;42261;52.094;4.326;2023-08-24T01:16:01;5.13;;;2.30;;
56363;SDS011;42261;52.094;4.326;2023-08-24T01:18:47;5.40;;;2.40;;
56363;SDS011;42261;52.094;4.326;2023-08-24T01:21:32;6.10;;;2.13;;
56363;SDS011;42261;52.094;4.326;2023-08-24T01:24:25;7.32;;;3.00;;
56363;SDS011;42261;52.094;4.326;2023-08-24T01:27:10;3.65;;;2.47;;
56363;SDS011;42261;52.094;4.326;2023-08-24T01:29:55;5.45;;;2.33;;
56363;SDS011;42261;52.094;4.326;2023-08-24T01:32:40;8.45;;;2.13;;
56363;SDS011;42261;52.094;4.326;2023-08-24T01:35:24;5.70;;;2.60;;
56363;SDS011;42261;52.094;4.326;2023-08-24T01:38:08;7.22;;;2.38;;
56363;SDS011;42261;52.094;4.326;2023-08-24T01:43:51;5.18;;;2.30;;
56363;SDS011;42261;52.094;4.326;2023-08-24T01:46:36;5.63;;;2.58;;
56363;SDS011;42261;52.094;4.326;2023-08-24T01:49:21;5.63;;;2.65;;
56363;SDS011;42261;52.094;4.326;2023-08-24T01:52:06;5.63;;;2.83;;
56363;SDS011;42261;52.094;4.326;2023-08-24T01:54:50;7.72;;;2.47;;
56363;SDS011;42261;52.094;4.326;2023-08-24T01:57:34;4.63;;;2.28;;
56363;SDS011;42261;52.094;4.326;2023-08-24T02:00:18;6.35;;;2.85;;
56363;SDS011;42261;52.094;4.326;2023-08-24T02:03:03;5.53;;;2.55;;
56363;SDS011;42261;52.094;4.326;2023-08-24T02:05:48;4.70;;;2.40;;
56363;SDS011;42261;52.094;4.326;2023-08-24T02:08:31;4.55;;;2.35;;
56363;SDS011;42261;52.094;4.326;2023-08-24T02:11:17;4.22;;;2.28;;
56363;SDS011;42261;52.094;4.326;2023-08-24T02:14:01;5.15;;;2.20;;
56363;SDS011;42261;52.094;4.326;2023-08-24T02:16:47;8.57;;;2.60;;
56363;SDS011;42261;52.094;4.326;2023-08-24T02:19:31;5.57;;;2.60;;
56363;SDS011;42261;52.094;4.326;2023-08-24T02:22:15;3.78;;;2.40;;
56363;SDS011;42261;52.094;4.326;2023-08-24T02:25:00;6.45;;;2.83;;
56363;SDS011;42261;52.094;4.326;2023-08-24T02:27:50;8.85;;;2.50;;
56363;SDS011;42261;52.094;4.326;2023-08-24T02:30:36;9.35;;;2.83;;
56363;SDS011;42261;52.094;4.326;2023-08-24T02:33:21;7.03;;;2.97;;
56363;SDS011;42261;52.094;4.326;2023-08-24T02:36:05;6.10;;;3.75;;
56363;SDS011;42261;52.094;4.326;2023-08-24T02:38:49;5.50;;;2.75;;
56363;SDS011;42261;52.094;4.326;2023-08-24T02:41:33;4.82;;;2.70;;
56363;SDS011;42261;52.094;4.326;2023-08-24T02:44:18;6.38;;;2.78;;
56363;SDS011;42261;52.094;4.326;2023-08-24T02:47:02;3.72;;;2.63;;
56363;SDS011;42261;52.094;4.326;2023-08-24T02:49:48;7.05;;;2.75;;
56363;SDS011;42261;52.094;4.326;2023-08-24T02:52:32;6.97;;;2.50;;
56363;SDS011;42261;52.094;4.326;2023-08-24T02:55:16;5.93;;;2.97;;
56363;SDS011;42261;52.094;4.326;2023-08-24T02:58:03;7.57;;;2.78;;
56363;SDS011;42261;52.094;4.326;2023-08-24T03:00:47;5.88;;;3.60;;
56363;SDS011;42261;52.094;4.326;2023-08-24T03:03:31;4.38;;;2.45;;
56363;SDS011;42261;52.094;4.326;2023-08-24T03:06:15;6.47;;;2.78;;
56363;SDS011;42261;52.094;4.326;2023-08-24T03:09:00;4.97;;;3.20;;
56363;SDS011;42261;52.094;4.326;2023-08-24T03:11:44;8.02;;;3.28;;
56363;SDS011;42261;52.094;4.326;2023-08-24T03:14:28;6.78;;;3.95;;
56363;SDS011;42261;52.094;4.326;2023-08-24T03:17:12;7.55;;;3.05;;
56363;SDS011;42261;52.094;4.326;2023-08-24T03:19:56;5.80;;;3.53;;
56363;SDS011;42261;52.094;4.326;2023-08-24T03:22:40;5.97;;;3.25;;
56363;SDS011;42261;52.094;4.326;2023-08-24T03:25:24;5.40;;;3.40;;
56363;SDS011;42261;52.094;4.326;2023-08-24T03:28:10;5.22;;;3.35;;
56363;SDS011;42261;52.094;4.326;2023-08-24T03:30:54;6.32;;;3.28;;
56363;SDS011;42261;52.094;4.326;2023-08-24T03:33:39;7.35;;;3.80;;
56363;SDS011;42261;52.094;4.326;2023-08-24T03:36:23;7.47;;;3.47;;
56363;SDS011;42261;52.094;4.326;2023-08-24T03:39:07;7.53;;;3.83;;
56363;SDS011;42261;52.094;4.326;2023-08-24T03:41:51;7.78;;;3.50;;
56363;SDS011;42261;52.094;4.326;2023-08-24T03:44:35;6.50;;;3.75;;
56363;SDS011;42261;52.094;4.326;2023-08-24T03:47:20;5.47;;;3.50;;
56363;SDS011;42261;52.094;4.326;2023-08-24T03:50:04;6.20;;;3.33;;
56363;SDS011;42261;52.094;4.326;2023-08-24T03:52:50;7.03;;;3.53;;
56363;SDS011;42261;52.094;4.326;2023-08-24T03:55:35;5.72;;;3.40;;
56363;SDS011;42261;52.094;4.326;2023-08-24T03:58:19;8.15;;;3.83;;
56363;SDS011;42261;52.094;4.326;2023-08-24T04:01:03;7.28;;;3.53;;
56363;SDS011;42261;52.094;4.326;2023-08-24T04:03:47;6.95;;;4.10;;
56363;SDS011;42261;52.094;4.326;2023-08-24T04:06:31;4.75;;;3.70;;
56363;SDS011;42261;52.094;4.326;2023-08-24T04:09:15;5.70;;;3.88;;
56363;SDS011;42261;52.094;4.326;2023-08-24T04:11:59;7.18;;;3.67;;
56363;SDS011;42261;52.094;4.326;2023-08-24T04:14:43;4.95;;;3.33;;
56363;SDS011;42261;52.094;4.326;2023-08-24T04:17:27;6.70;;;3.63;;
56363;SDS011;42261;52.094;4.326;2023-08-24T04:20:12;9.18;;;4.13;;
56363;SDS011;42261;52.094;4.326;2023-08-24T04:22:57;6.78;;;3.65;;
56363;SDS011;42261;52.094;4.326;2023-08-24T04:25:40;8.70;;;4.38;;
56363;SDS011;42261;52.094;4.326;2023-08-24T04:28:25;6.25;;;3.78;;
56363;SDS011;42261;52.094;4.326;2023-08-24T04:31:10;7.85;;;4.65;;
56363;SDS011;42261;52.094;4.326;2023-08-24T04:33:54;7.30;;;4.22;;
56363;SDS011;42261;52.094;4.326;2023-08-24T04:36:38;7.30;;;4.05;;
56363;SDS011;42261;52.094;4.326;2023-08-24T04:39:22;7.78;;;3.90;;
56363;SDS011;42261;52.094;4.326;2023-08-24T04:42:06;6.07;;;3.95;;
56363;SDS011;42261;52.094;4.326;2023-08-24T04:44:50;8.23;;;4.63;;
56363;SDS011;42261;52.094;4.326;2023-08-24T04:47:34;8.27;;;4.72;;
56363;SDS011;42261;52.094;4.326;2023-08-24T04:50:18;10.23;;;4.40;;
56363;SDS011;42261;52.094;4.326;2023-08-24T04:53:05;6.60;;;4.00;;
56363;SDS011;42261;52.094;4.326;2023-08-24T04:55:49;6.75;;;4.47;;
56363;SDS011;42261;52.094;4.326;2023-08-24T04:58:33;8.45;;;4.32;;
56363;SDS011;42261;52.094;4.326;2023-08-24T05:01:18;7.85;;;4.45;;
56363;SDS011;42261;52.094;4.326;2023-08-24T05:04:02;6.70;;;4.13;;
56363;SDS011;42261;52.094;4.326;2023-08-24T05:06:46;4.85;;;3.53;;
56363;SDS011;42261;52.094;4.326;2023-08-24T05:09:29;8.68;;;4.60;;
56363;SDS011;42261;52.094;4.326;2023-08-24T05:12:14;8.98;;;4.07;;
56363;SDS011;42261;52.094;4.326;2023-08-24T05:14:58;8.00;;;4.00;;
56363;SDS011;42261;52.094;4.326;2023-08-24T05:17:41;7.82;;;4.00;;
56363;SDS011;42261;52.094;4.326;2023-08-24T05:20:26;7.57;;;4.47;;
56363;SDS011;42261;52.094;4.326;2023-08-24T05:23:10;7.70;;;4.68;;
56363;SDS011;42261;52.094;4.326;2023-08-24T05:25:56;8.68;;;4.38;;
56363;SDS011;42261;52.094;4.326;2023-08-24T05:28:40;7.20;;;4.45;;
56363;SDS011;42261;52.094;4.326;2023-08-24T05:31:24;9.30;;;4.72;;
56363;SDS011;42261;52.094;4.326;2023-08-24T05:34:08;8.43;;;5.10;;
56363;SDS011;42261;52.094;4.326;2023-08-24T05:36:52;8.55;;;4.70;;
56363;SDS011;42261;52.094;4.326;2023-08-24T05:39:36;7.55;;;4.47;;
56363;SDS011;42261;52.094;4.326;2023-08-24T05:42:21;8.75;;;4.95;;
56363;SDS011;42261;52.094;4.326;2023-08-24T05:45:05;11.73;;;5.68;;
56363;SDS011;42261;52.094;4.326;2023-08-24T05:47:50;8.18;;;4.97;;
56363;SDS011;42261;52.094;4.326;2023-08-24T05:50:33;10.43;;;5.68;;
56363;SDS011;42261;52.094;4.326;2023-08-24T05:53:19;8.73;;;5.05;;
56363;SDS011;42261;52.094;4.326;2023-08-24T05:56:02;8.05;;;4.78;;
56363;SDS011;42261;52.094;4.326;2023-08-24T05:58:47;9.10;;;5.32;;
56363;SDS011;42261;52.094;4.326;2023-08-24T06:01:31;8.55;;;5.28;;
56363;SDS011;42261;52.094;4.326;2023-08-24T06:04:15;8.70;;;5.60;;
56363;SDS011;42261;52.094;4.326;2023-08-24T06:07:02;8.10;;;5.60;;
56363;SDS011;42261;52.094;4.326;2023-08-24T06:09:51;8.82;;;5.18;;
56363;SDS011;42261;52.094;4.326;2023-08-24T06:12:36;12.23;;;5.68;;
56363;SDS011;42261;52.094;4.326;2023-08-24T06:15:20;9.55;;;5.30;;
56363;SDS011;42261;52.094;4.326;2023-08-24T06:18:07;9.27;;;5.63;;
56363;SDS011;42261;52.094;4.326;2023-08-24T06:20:51;12.23;;;5.30;;
56363;SDS011;42261;52.094;4.326;2023-08-24T06:23:36;8.00;;;5.38;;
56363;SDS011;42261;52.094;4.326;2023-08-24T06:26:20;11.18;;;5.60;;
56363;SDS011;42261;52.094;4.326;2023-08-24T06:29:04;11.07;;;5.72;;
56363;SDS011;42261;52.094;4.326;2023-08-24T06:31:48;8.52;;;5.10;;
56363;SDS011;42261;52.094;4.326;2023-08-24T06:34:32;10.15;;;5.55;;
56363;SDS011;42261;52.094;4.326;2023-08-24T06:37:16;10.75;;;6.25;;
56363;SDS011;42261;52.094;4.326;2023-08-24T06:40:01;9.30;;;6.15;;
56363;SDS011;42261;52.094;4.326;2023-08-24T06:42:46;9.75;;;5.65;;
56363;SDS011;42261;52.094;4.326;2023-08-24T06:45:30;11.70;;;6.50;;
56363;SDS011;42261;52.094;4.326;2023-08-24T06:48:14;9.20;;;5.93;;
56363;SDS011;42261;52.094;4.326;2023-08-24T06:50:58;9.13;;;6.22;;
56363;SDS011;42261;52.094;4.326;2023-08-24T06:53:42;10.57;;;6.15;;
56363;SDS011;42261;52.094;4.326;2023-08-24T06:56:26;12.02;;;5.90;;
56363;SDS011;42261;52.094;4.326;2023-08-24T06:59:10;12.13;;;6.55;;
56363;SDS011;42261;52.094;4.326;2023-08-24T07:01:56;11.63;;;5.65;;
56363;SDS011;42261;52.094;4.326;2023-08-24T07:04:41;10.38;;;6.53;;
56363;SDS011;42261;52.094;4.326;2023-08-24T07:07:25;12.48;;;6.80;;
56363;SDS011;42261;52.094;4.326;2023-08-24T07:10:09;12.25;;;7.07;;
56363;SDS011;42261;52.094;4.326;2023-08-24T07:12:53;15.82;;;7.75;;
56363;SDS011;42261;52.094;4.326;2023-08-24T07:15:37;10.73;;;7.45;;
56363;SDS011;42261;52.094;4.326;2023-08-24T07:18:21;17.60;;;7.70;;
56363;SDS011;42261;52.094;4.326;2023-08-24T07:21:05;13.18;;;6.47;;
56363;SDS011;42261;52.094;4.326;2023-08-24T07:23:49;11.63;;;6.72;;
56363;SDS011;42261;52.094;4.326;2023-08-24T07:26:33;11.88;;;7.25;;
56363;SDS011;42261;52.094;4.326;2023-08-24T07:29:19;17.10;;;8.88;;
56363;SDS011;42261;52.094;4.326;2023-08-24T07:32:03;12.02;;;8.07;;
56363;SDS011;42261;52.094;4.326;2023-08-24T07:34:47;14.60;;;7.30;;
56363;SDS011;42261;52.094;4.326;2023-08-24T07:37:32;13.60;;;7.25;;
56363;SDS011;42261;52.094;4.326;2023-08-24T07:40:16;16.92;;;7.82;;
56363;SDS011;42261;52.094;4.326;2023-08-24T07:43:00;12.75;;;7.80;;
56363;SDS011;42261;52.094;4.326;2023-08-24T07:45:44;13.75;;;8.73;;
56363;SDS011;42261;52.094;4.326;2023-08-24T07:48:29;18.63;;;8.43;;
56363;SDS011;42261;52.094;4.326;2023-08-24T07:51:13;18.13;;;9.63;;
56363;SDS011;42261;52.094;4.326;2023-08-24T07:53:58;14.05;;;8.18;;
56363;SDS011;42261;52.094;4.326;2023-08-24T07:56:42;13.30;;;7.95;;
56363;SDS011;42261;52.094;4.326;2023-08-24T07:59:26;14.82;;;8.45;;
56363;SDS011;42261;52.094;4.326;2023-08-24T08:02:10;15.13;;;8.13;;
56363;SDS011;42261;52.094;4.326;2023-08-24T08:04:58;14.23;;;9.30;;
56363;SDS011;42261;52.094;4.326;2023-08-24T08:07:42;12.10;;;8.43;;
56363;SDS011;42261;52.094;4.326;2023-08-24T08:10:26;14.55;;;8.18;;
56363;SDS011;42261;52.094;4.326;2023-08-24T08:13:11;10.75;;;7.70;;
56363;SDS011;42261;52.094;4.326;2023-08-24T08:16:02;15.65;;;8.68;;
56363;SDS011;42261;52.094;4.326;2023-08-24T08:18:47;12.57;;;8.38;;
56363;SDS011;42261;52.094;4.326;2023-08-24T08:21:31;13.10;;;8.52;;
56363;SDS011;42261;52.094;4.326;2023-08-24T08:24:15;11.05;;;7.93;;
56363;SDS011;42261;52.094;4.326;2023-08-24T08:26:59;15.93;;;7.93;;
56363;SDS011;42261;52.094;4.326;2023-08-24T08:29:43;13.52;;;7.78;;
56363;SDS011;42261;52.094;4.326;2023-08-24T08:32:27;15.00;;;8.43;;
56363;SDS011;42261;52.094;4.326;2023-08-24T08:35:11;13.02;;;7.93;;
56363;SDS011;42261;52.094;4.326;2023-08-24T08:37:55;11.50;;;7.85;;
56363;SDS011;42261;52.094;4.326;2023-08-24T08:40:39;14.60;;;8.65;;
56363;SDS011;42261;52.094;4.326;2023-08-24T08:43:24;13.00;;;7.78;;
56363;SDS011;42261;52.094;4.326;2023-08-24T08:46:08;14.13;;;7.97;;
56363;SDS011;42261;52.094;4.326;2023-08-24T08:48:53;12.10;;;8.20;;
56363;SDS011;42261;52.094;4.326;2023-08-24T08:51:38;15.98;;;8.50;;
56363;SDS011;42261;52.094;4.326;2023-08-24T08:54:22;13.10;;;8.07;;
56363;SDS011;42261;52.094;4.326;2023-08-24T08:57:07;10.82;;;7.30;;
56363;SDS011;42261;52.094;4.326;2023-08-24T08:59:52;10.20;;;7.50;;
56363;SDS011;42261;52.094;4.326;2023-08-24T09:02:36;12.90;;;7.38;;
56363;SDS011;42261;52.094;4.326;2023-08-24T09:05:20;13.75;;;7.95;;
56363;SDS011;42261;52.094;4.326;2023-08-24T09:08:06;10.60;;;7.85;;
56363;SDS011;42261;52.094;4.326;2023-08-24T09:10:49;13.88;;;7.35;;
56363;SDS011;42261;52.094;4.326;2023-08-24T09:13:34;14.10;;;7.65;;
56363;SDS011;42261;52.094;4.326;2023-08-24T09:16:18;14.13;;;7.18;;
56363;SDS011;42261;52.094;4.326;2023-08-24T09:19:04;12.95;;;8.05;;
56363;SDS011;42261;52.094;4.326;2023-08-24T09:21:49;11.40;;;8.05;;
56363;SDS011;42261;52.094;4.326;2023-08-24T09:24:33;11.93;;;7.05;;
56363;SDS011;42261;52.094;4.326;2023-08-24T09:27:18;11.13;;;7.28;;
56363;SDS011;42261;52.094;4.326;2023-08-24T09:30:02;10.00;;;6.57;;
56363;SDS011;42261;52.094;4.326;2023-08-24T09:32:46;10.70;;;7.95;;
56363;SDS011;42261;52.094;4.326;2023-08-24T09:35:34;9.88;;;6.88;;
56363;SDS011;42261;52.094;4.326;2023-08-24T09:38:21;14.80;;;7.78;;
56363;SDS011;42261;52.094;4.326;2023-08-24T09:41:05;12.93;;;7.35;;
56363;SDS011;42261;52.094;4.326;2023-08-24T09:43:49;10.80;;;7.70;;
56363;SDS011;42261;52.094;4.326;2023-08-24T09:46:34;14.25;;;7.50;;
56363;SDS011;42261;52.094;4.326;2023-08-24T09:49:18;13.93;;;7.93;;
56363;SDS011;42261;52.094;4.326;2023-08-24T09:52:03;15.30;;;7.95;;
56363;SDS011;42261;52.094;4.326;2023-08-24T09:54:50;11.50;;;7.90;;
56363;SDS011;42261;52.094;4.326;2023-08-24T09:57:38;10.43;;;7.10;;
56363;SDS011;42261;52.094;4.326;2023-08-24T10:00:22;13.15;;;8.20;;
56363;SDS011;42261;52.094;4.326;2023-08-24T10:03:08;11.30;;;8.02;;
56363;SDS011;42261;52.094;4.326;2023-08-24T10:05:54;11.70;;;7.75;;
56363;SDS011;42261;52.094;4.326;2023-08-24T10:08:47;10.45;;;7.57;;
56363;SDS011;42261;52.094;4.326;2023-08-24T10:11:31;12.15;;;7.82;;
56363;SDS011;42261;52.094;4.326;2023-08-24T10:14:24;17.20;;;8.55;;
56363;SDS011;42261;52.094;4.326;2023-08-24T10:17:11;13.85;;;8.73;;
56363;SDS011;42261;52.094;4.326;2023-08-24T10:19:56;15.48;;;8.63;;
56363;SDS011;42261;52.094;4.326;2023-08-24T10:22:41;11.90;;;8.30;;
56363;SDS011;42261;52.094;4.326;2023-08-24T10:25:26;13.75;;;8.77;;
56363;SDS011;42261;52.094;4.326;2023-08-24T10:28:10;11.55;;;7.47;;
56363;SDS011;42261;52.094;4.326;2023-08-24T10:30:58;16.67;;;8.35;;
56363;SDS011;42261;52.094;4.326;2023-08-24T10:33:44;10.27;;;6.20;;
56363;SDS011;42261;52.094;4.326;2023-08-24T10:36:29;15.75;;;9.20;;
56363;SDS011;42261;52.094;4.326;2023-08-24T10:39:14;10.45;;;7.22;;
56363;SDS011;42261;52.094;4.326;2023-08-24T10:41:59;17.42;;;7.38;;
56363;SDS011;42261;52.094;4.326;2023-08-24T10:44:44;16.38;;;8.05;;
56363;SDS011;42261;52.094;4.326;2023-08-24T10:47:29;11.13;;;8.50;;
56363;SDS011;42261;52.094;4.326;2023-08-24T10:50:13;14.25;;;7.93;;
56363;SDS011;42261;52.094;4.326;2023-08-24T10:52:57;13.32;;;8.13;;
56363;SDS011;42261;52.094;4.326;2023-08-24T10:55:41;7.85;;;7.00;;
56363;SDS011;42261;52.094;4.326;2023-08-24T10:58:26;12.05;;;7.78;;
56363;SDS011;42261;52.094;4.326;2023-08-24T11:01:19;9.88;;;7.18;;
56363;SDS011;42261;52.094;4.326;2023-08-24T11:04:05;9.35;;;7.55;;
56363;SDS011;42261;52.094;4.326;2023-08-24T11:06:52;10.35;;;7.15;;
56363;SDS011;42261;52.094;4.326;2023-08-24T11:09:46;9.18;;;6.95;;
56363;SDS011;42261;52.094;4.326;2023-08-24T11:12:54;9.88;;;6.68;;
56363;SDS011;42261;52.094;4.326;2023-08-24T11:15:39;11.27;;;6.90;;
56363;SDS011;42261;52.094;4.326;2023-08-24T11:21:12;9.75;;;6.95;;
56363;SDS011;42261;52.094;4.326;2023-08-24T11:23:58;8.23;;;6.45;;
56363;SDS011;42261;52.094;4.326;2023-08-24T11:26:43;8.38;;;6.63;;
56363;SDS011;42261;52.094;4.326;2023-08-24T11:29:27;8.20;;;6.25;;
56363;SDS011;42261;52.094;4.326;2023-08-24T11:32:11;8.65;;;5.40;;
56363;SDS011;42261;52.094;4.326;2023-08-24T11:34:55;10.98;;;7.57;;
56363;SDS011;42261;52.094;4.326;2023-08-24T11:37:39;10.68;;;7.03;;
56363;SDS011;42261;52.094;4.326;2023-08-24T11:40:24;12.35;;;6.97;;
56363;SDS011;42261;52.094;4.326;2023-08-24T11:43:11;9.35;;;5.60;;
56363;SDS011;42261;52.094;4.326;2023-08-24T11:45:55;9.18;;;5.85;;
56363;SDS011;42261;52.094;4.326;2023-08-24T11:48:39;8.15;;;4.97;;
56363;SDS011;42261;52.094;4.326;2023-08-24T11:51:25;8.13;;;5.95;;
56363;SDS011;42261;52.094;4.326;2023-08-24T11:54:09;8.18;;;5.50;;
56363;SDS011;42261;52.094;4.326;2023-08-24T11:56:53;7.45;;;5.63;;
56363;SDS011;42261;52.094;4.326;2023-08-24T11:59:37;8.00;;;5.50;;
56363;SDS011;42261;52.094;4.326;2023-08-24T12:02:22;7.65;;;6.15;;
56363;SDS011;42261;52.094;4.326;2023-08-24T12:05:06;9.23;;;6.82;;
56363;SDS011;42261;52.094;4.326;2023-08-24T12:07:52;9.13;;;6.80;;
56363;SDS011;42261;52.094;4.326;2023-08-24T12:10:41;11.88;;;6.85;;
56363;SDS011;42261;52.094;4.326;2023-08-24T12:13:25;9.43;;;6.43;;
56363;SDS011;42261;52.094;4.326;2023-08-24T12:16:09;8.85;;;7.15;;
56363;SDS011;42261;52.094;4.326;2023-08-24T12:18:57;12.63;;;7.88;;
56363;SDS011;42261;52.094;4.326;2023-08-24T12:21:49;11.77;;;6.90;;
56363;SDS011;42261;52.094;4.326;2023-08-24T12:24:34;9.93;;;8.00;;
56363;SDS011;42261;52.094;4.326;2023-08-24T12:27:18;10.95;;;8.57;;
56363;SDS011;42261;52.094;4.326;2023-08-24T12:30:03;11.88;;;8.27;;
56363;SDS011;42261;52.094;4.326;2023-08-24T12:32:48;11.35;;;9.13;;
56363;SDS011;42261;52.094;4.326;2023-08-24T12:35:36;16.08;;;9.95;;
56363;SDS011;42261;52.094;4.326;2023-08-24T12:38:20;14.35;;;10.30;;
56363;SDS011;42261;52.094;4.326;2023-08-24T12:41:04;14.18;;;9.60;;
56363;SDS011;42261;52.094;4.326;2023-08-24T12:43:48;13.68;;;9.95;;
56363;SDS011;42261;52.094;4.326;2023-08-24T12:46:32;16.10;;;10.93;;
56363;SDS011;42261;52.094;4.326;2023-08-24T12:49:17;14.35;;;11.00;;
56363;SDS011;42261;52.094;4.326;2023-08-24T12:52:01;16.38;;;11.38;;
56363;SDS011;42261;52.094;4.326;2023-08-24T12:54:45;14.95;;;12.13;;
56363;SDS011;42261;52.094;4.326;2023-08-24T12:57:30;16.50;;;12.00;;
56363;SDS011;42261;52.094;4.326;2023-08-24T13:00:14;16.60;;;11.27;;
56363;SDS011;42261;52.094;4.326;2023-08-24T13:02:59;17.58;;;11.75;;
56363;SDS011;42261;52.094;4.326;2023-08-24T13:05:44;18.02;;;11.93;;
56363;SDS011;42261;52.094;4.326;2023-08-24T13:08:29;14.98;;;11.85;;
56363;SDS011;42261;52.094;4.326;2023-08-24T13:11:14;14.07;;;11.45;;
56363;SDS011;42261;52.094;4.326;2023-08-24T13:13:58;17.58;;;12.30;;
56363;SDS011;42261;52.094;4.326;2023-08-24T13:16:42;15.52;;;12.00;;
56363;SDS011;42261;52.094;4.326;2023-08-24T13:19:26;16.77;;;10.70;;
56363;SDS011;42261;52.094;4.326;2023-08-24T13:22:10;14.75;;;10.85;;
56363;SDS011;42261;52.094;4.326;2023-08-24T13:24:54;13.75;;;10.98;;
56363;SDS011;42261;52.094;4.326;2023-08-24T13:27:38;15.45;;;10.27;;
56363;SDS011;42261;52.094;4.326;2023-08-24T13:30:22;15.50;;;11.38;;
56363;SDS011;42261;52.094;4.326;2023-08-24T13:33:06;14.82;;;12.05;;
56363;SDS011;42261;52.094;4.326;2023-08-24T13:35:50;12.43;;;10.48;;
56363;SDS011;42261;52.094;4.326;2023-08-24T13:38:34;17.35;;;11.73;;
56363;SDS011;42261;52.094;4.326;2023-08-24T13:41:18;17.05;;;12.25;;
56363;SDS011;42261;52.094;4.326;2023-08-24T13:44:02;20.17;;;13.60;;
56363;SDS011;42261;52.094;4.326;2023-08-24T13:46:46;16.05;;;10.10;;
56363;SDS011;42261;52.094;4.326;2023-08-24T13:49:30;24.13;;;13.85;;
56363;SDS011;42261;52.094;4.326;2023-08-24T13:52:14;19.05;;;12.13;;
56363;SDS011;42261;52.094;4.326;2023-08-24T13:55:00;21.10;;;14.50;;
56363;SDS011;42261;52.094;4.326;2023-08-24T13:57:47;17.30;;;12.23;;
56363;SDS011;42261;52.094;4.326;2023-08-24T14:00:31;15.80;;;12.77;;
56363;SDS011;42261;52.094;4.326;2023-08-24T14:03:15;18.85;;;12.57;;
56363;SDS011;42261;52.094;4.326;2023-08-24T14:06:00;14.52;;;11.07;;
56363;SDS011;42261;52.094;4.326;2023-08-24T14:08:44;16.33;;;11.68;;
56363;SDS011;42261;52.094;4.326;2023-08-24T14:11:30;15.05;;;10.98;;
56363;SDS011;42261;52.094;4.326;2023-08-24T14:14:14;17.48;;;11.85;;
56363;SDS011;42261;52.094;4.326;2023-08-24T14:16:58;17.85;;;10.98;;
56363;SDS011;42261;52.094;4.326;2023-08-24T14:19:43;21.17;;;8.75;;
56363;SDS011;42261;52.094;4.326;2023-08-24T14:22:27;13.82;;;7.93;;
56363;SDS011;42261;52.094;4.326;2023-08-24T14:25:11;12.20;;;7.00;;
56363;SDS011;42261;52.094;4.326;2023-08-24T14:27:55;9.50;;;6.45;;
56363;SDS011;42261;52.094;4.326;2023-08-24T14:30:39;11.52;;;6.07;;
56363;SDS011;42261;52.094;4.326;2023-08-24T14:33:24;7.95;;;4.70;;
56363;SDS011;42261;52.094;4.326;2023-08-24T14:36:09;13.20;;;4.82;;
56363;SDS011;42261;52.094;4.326;2023-08-24T14:38:53;7.50;;;4.45;;
56363;SDS011;42261;52.094;4.326;2023-08-24T14:41:38;7.45;;;4.90;;
56363;SDS011;42261;52.094;4.326;2023-08-24T14:44:22;8.13;;;3.95;;
56363;SDS011;42261;52.094;4.326;2023-08-24T14:47:06;8.25;;;4.53;;
56363;SDS011;42261;52.094;4.326;2023-08-24T14:49:51;7.93;;;4.88;;
56363;SDS011;42261;52.094;4.326;2023-08-24T14:52:35;10.05;;;5.55;;
56363;SDS011;42261;52.094;4.326;2023-08-24T14:55:19;8.77;;;5.80;;
56363;SDS011;42261;52.094;4.326;2023-08-24T14:58:04;12.30;;;5.35;;
56363;SDS011;42261;52.094;4.326;2023-08-24T15:00:52;7.88;;;5.13;;
56363;SDS011;42261;52.094;4.326;2023-08-24T15:03:39;8.30;;;6.07;;
56363;SDS011;42261;52.094;4.326;2023-08-24T15:06:23;9.77;;;7.25;;
56363;SDS011;42261;52.094;4.326;2023-08-24T15:09:07;10.15;;;6.72;;
56363;SDS011;42261;52.094;4.326;2023-08-24T15:11:52;11.68;;;7.32;;
56363;SDS011;42261;52.094;4.326;2023-08-24T15:14:36;12.63;;;7.38;;
56363;SDS011;42261;52.094;4.326;2023-08-24T15:17:20;11.93;;;8.02;;
56363;SDS011;42261;52.094;4.326;2023-08-24T15:20:04;8.38;;;6.38;;
56363;SDS011;42261;52.094;4.326;2023-08-24T15:22:58;13.25;;;7.07;;
56363;SDS011;42261;52.094;4.326;2023-08-24T15:25:43;6.43;;;4.75;;
56363;SDS011;42261;52.094;4.326;2023-08-24T15:28:36;5.03;;;3.63;;
56363;SDS011;42261;52.094;4.326;2023-08-24T15:31:23;6.50;;;3.10;;
56363;SDS011;42261;52.094;4.326;2023-08-24T15:34:07;6.13;;;2.63;;
56363;SDS011;42261;52.094;4.326;2023-08-24T15:36:54;7.10;;;2.00;;
56363;SDS011;42261;52.094;4.326;2023-08-24T15:39:39;3.95;;;2.28;;
56363;SDS011;42261;52.094;4.326;2023-08-24T15:42:23;3.55;;;1.88;;
56363;SDS011;42261;52.094;4.326;2023-08-24T15:45:08;3.45;;;2.15;;
56363;SDS011;42261;52.094;4.326;2023-08-24T15:48:01;3.55;;;2.03;;
56363;SDS011;42261;52.094;4.326;2023-08-24T15:50:46;3.08;;;2.00;;
56363;SDS011;42261;52.094;4.326;2023-08-24T15:53:33;3.78;;;2.20;;
56363;SDS011;42261;52.094;4.326;2023-08-24T15:56:17;4.00;;;2.00;;
56363;SDS011;42261;52.094;4.326;2023-08-24T15:59:01;6.32;;;2.40;;
56363;SDS011;42261;52.094;4.326;2023-08-24T16:01:48;7.43;;;2.63;;
56363;SDS011;42261;52.094;4.326;2023-08-24T16:04:42;5.55;;;2.20;;
56363;SDS011;42261;52.094;4.326;2023-08-24T16:07:29;4.05;;;2.17;;
56363;SDS011;42261;52.094;4.326;2023-08-24T16:10:13;7.05;;;2.60;;
56363;SDS011;42261;52.094;4.326;2023-08-24T16:12:57;5.28;;;2.80;;
56363;SDS011;42261;52.094;4.326;2023-08-24T16:15:44;3.67;;;2.00;;
56363;SDS011;42261;52.094;4.326;2023-08-24T16:18:28;3.53;;;1.90;;
56363;SDS011;42261;52.094;4.326;2023-08-24T16:21:15;3.60;;;1.87;;
56363;SDS011;42261;52.094;4.326;2023-08-24T16:24:00;5.35;;;2.47;;
56363;SDS011;42261;52.094;4.326;2023-08-24T16:26:44;4.60;;;2.63;;
56363;SDS011;42261;52.094;4.326;2023-08-24T16:29:29;5.32;;;2.72;;
56363;SDS011;42261;52.094;4.326;2023-08-24T16:32:13;3.63;;;2.58;;